Time;durP1;ratioP1;P1;durP2;ratioP2;P2;SDS_P1;SDS_P2;PMS_P1;PMS_P2;Temp;Humidity;BMP_temperature;BMP_pressure;BME280_temperature;BME280_humidity;BME280_pressure;Samples;Min_cycle;Max_cycle;Signal;HPM_P1;HPM_P2
2021/11/04 00:00:26;;;;;;;1.25;1.15;;;17.40;69.40;;;;;;5104291;28;20024;-38
2021/11/04 00:02:52;;;;;;;1.20;1.10;;;17.40;69.60;;;;;;5104267;28;20044;-37
2021/11/04 00:05:18;;;;;;;1.40;1.30;;;17.40;69.50;;;;;;5104022;28;20028;-37
2021/11/04 00:07:47;;;;;;;1.30;1.17;;;17.40;69.60;;;;;;5104078;28;20073;-37
2021/11/04 00:10:13;;;;;;;2.00;1.35;;;17.40;69.60;;;;;;5104097;28;20074;-37
2021/11/04 00:12:40;;;;;;;1.17;1.08;;;17.30;69.70;;;;;;5103899;28;20032;-37
2021/11/04 00:15:06;;;;;;;1.13;1.02;;;17.30;69.60;;;;;;5103936;28;20123;-38
2021/11/04 00:17:32;;;;;;;1.30;1.02;;;17.30;69.50;;;;;;5104104;28;20047;-37
2021/11/04 00:19:59;;;;;;;1.42;1.33;;;17.30;69.60;;;;;;5103935;28;20548;-37
2021/11/04 00:22:25;;;;;;;2.00;1.00;;;17.30;69.50;;;;;;5103584;28;20035;-37
2021/11/04 00:24:51;;;;;;;1.48;1.27;;;17.30;69.50;;;;;;5101217;28;20138;-38
2021/11/04 00:27:17;;;;;;;1.30;1.07;;;17.30;69.40;;;;;;5103932;28;20028;-38
2021/11/04 00:29:44;;;;;;;1.30;1.20;;;17.30;69.50;;;;;;5103775;28;20095;-38
2021/11/04 00:32:10;;;;;;;1.27;1.17;;;17.30;69.60;;;;;;5102904;28;20028;-38
2021/11/04 00:34:36;;;;;;;1.20;1.10;;;17.30;69.60;;;;;;5101672;28;20024;-38
2021/11/04 00:37:02;;;;;;;1.65;1.17;;;17.30;69.70;;;;;;5091537;28;20055;-37
2021/11/04 00:39:28;;;;;;;1.45;1.25;;;17.20;69.70;;;;;;5103339;28;20047;-38
2021/11/04 00:41:54;;;;;;;1.38;1.27;;;17.20;69.60;;;;;;5103343;28;20077;-38
2021/11/04 00:44:20;;;;;;;1.40;1.30;;;17.20;69.60;;;;;;5103429;28;20032;-38
2021/11/04 00:46:47;;;;;;;1.40;1.10;;;17.20;69.60;;;;;;5103416;28;20046;-38
2021/11/04 00:49:13;;;;;;;1.50;1.20;;;17.20;69.60;;;;;;5103385;28;20032;-37
2021/11/04 00:51:39;;;;;;;1.30;1.15;;;17.20;69.60;;;;;;5102904;28;20032;-37
2021/11/04 00:54:05;;;;;;;1.33;1.23;;;17.20;69.70;;;;;;5103478;28;20039;-38
2021/11/04 00:56:31;;;;;;;1.42;1.30;;;17.20;69.60;;;;;;5103214;28;20027;-37
2021/11/04 00:58:58;;;;;;;1.48;1.38;;;17.20;69.60;;;;;;5103275;28;20039;-37
2021/11/04 01:01:24;;;;;;;2.45;1.10;;;17.20;69.90;;;;;;5102762;28;20058;-42
2021/11/04 01:03:51;;;;;;;1.70;1.60;;;17.20;69.70;;;;;;5102865;28;20044;-37
2021/11/04 01:06:17;;;;;;;1.50;1.40;;;17.20;69.70;;;;;;5101300;28;20020;-38
2021/11/04 01:08:44;;;;;;;1.85;1.50;;;17.10;69.60;;;;;;5092748;28;20082;-37
2021/11/04 01:11:10;;;;;;;1.88;1.20;;;17.10;69.60;;;;;;5082687;28;20535;-37
2021/11/04 01:13:36;;;;;;;1.98;1.30;;;17.10;69.80;;;;;;5089096;28;20070;-38
2021/11/04 01:16:03;;;;;;;1.70;1.43;;;17.10;69.70;;;;;;5104779;28;20024;-38
2021/11/04 01:18:29;;;;;;;1.42;1.15;;;17.10;69.80;;;;;;5101755;28;20770;-38
2021/11/04 01:20:55;;;;;;;1.77;1.35;;;17.10;69.80;;;;;;5101720;28;20047;-37
2021/11/04 01:23:21;;;;;;;1.58;1.33;;;17.10;69.80;;;;;;5101527;28;20067;-37
2021/11/04 01:25:47;;;;;;;1.27;1.15;;;17.10;70.60;;;;;;5101930;28;20040;-38
2021/11/04 01:28:15;;;;;;;1.13;1.02;;;17.10;69.80;;;;;;5102008;28;20708;-37
2021/11/04 01:30:41;;;;;;;1.55;1.08;;;17.00;69.70;;;;;;5101871;28;20111;-38
2021/11/04 01:33:07;;;;;;;1.23;1.05;;;17.10;69.80;;;;;;5101845;28;20039;-37
2021/11/04 01:35:36;;;;;;;2.00;1.50;;;17.00;69.80;;;;;;5101580;28;20020;-37
2021/11/04 01:38:03;;;;;;;1.58;1.20;;;17.10;69.90;;;;;;5101512;28;20040;-38
2021/11/04 01:40:30;;;;;;;;;;;17.00;69.90;;;;;;5102282;28;20055;-38
2021/11/04 01:42:57;;;;;;;1.25;1.15;;;17.00;69.80;;;;;;5100646;28;20007;-38
2021/11/04 01:45:23;;;;;;;1.60;1.40;;;17.00;70.00;;;;;;5083310;28;20838;-37
2021/11/04 01:47:51;;;;;;;1.55;1.30;;;17.00;69.90;;;;;;5101596;28;20062;-37
2021/11/04 01:50:18;;;;;;;1.15;1.05;;;17.00;69.90;;;;;;5102390;28;20032;-38
2021/11/04 01:52:44;;;;;;;;;;;17.00;69.80;;;;;;5102207;28;20032;-38
2021/11/04 01:55:21;;;;;;;1.50;1.40;;;17.00;69.80;;;;;;5083238;28;19979;-38
2021/11/04 01:57:48;;;;;;;1.50;1.40;;;17.00;69.80;;;;;;5101715;28;20028;-38
2021/11/04 02:00:16;;;;;;;2.65;1.33;;;16.90;69.90;;;;;;5101520;28;20298;-37
2021/11/04 02:02:45;;;;;;;3.55;1.40;;;16.90;69.90;;;;;;5101093;28;20094;-38
2021/11/04 02:05:11;;;;;;;1.55;1.20;;;16.90;69.80;;;;;;5101470;28;20024;-37
2021/11/04 02:07:48;;;;;;;1.63;1.40;;;16.90;69.90;;;;;;5066381;28;20039;-37
2021/11/04 02:10:39;;;;;;;1.13;0.98;;;16.90;69.90;;;;;;5084553;28;20045;-37
2021/11/04 02:13:12;;;;;;;1.33;1.20;;;16.90;70.10;;;;;;5026107;28;2122826;-38
2021/11/04 02:15:40;;;;;;;1.10;1.00;;;16.90;69.90;;;;;;5083950;28;20700;-38
2021/11/04 02:18:08;;;;;;;1.50;1.27;;;16.90;70.10;;;;;;5067430;28;20024;-37
2021/11/04 02:20:55;;;;;;;1.77;1.02;;;16.90;70.00;;;;;;5104520;28;20079;-38
2021/11/04 02:23:28;;;;;;;2.22;1.30;;;16.80;70.00;;;;;;5122096;28;20070;-38
2021/11/04 02:25:55;;;;;;;1.40;1.30;;;16.90;70.10;;;;;;5122195;28;20582;-37
2021/11/04 02:28:21;;;;;;;1.20;1.10;;;16.80;70.00;;;;;;5087064;28;20020;-38
2021/11/04 02:30:47;;;;;;;1.25;1.10;;;16.80;70.00;;;;;;5122693;28;20051;-38
2021/11/04 02:33:21;;;;;;;1.40;1.20;;;16.80;70.00;;;;;;5122136;28;20507;-37
2021/11/04 02:35:51;;;;;;;1.20;1.10;;;16.80;70.00;;;;;;5110388;28;20107;-38
2021/11/04 02:38:19;;;;;;;1.35;1.25;;;16.80;70.00;;;;;;5084002;28;20031;-38
2021/11/04 02:40:46;;;;;;;1.45;1.20;;;16.80;70.00;;;;;;5101953;28;20032;-38
2021/11/04 02:43:15;;;;;;;1.25;1.00;;;16.80;70.10;;;;;;5101604;28;20504;-45
2021/11/04 02:45:42;;;;;;;1.20;1.10;;;16.80;70.10;;;;;;5083792;28;20042;-38
2021/11/04 02:48:09;;;;;;;1.53;1.20;;;16.80;70.20;;;;;;5101829;28;20032;-38
2021/11/04 02:50:35;;;;;;;1.42;1.30;;;16.70;70.10;;;;;;5101611;28;20020;-38
2021/11/04 02:53:01;;;;;;;1.33;1.20;;;16.70;70.20;;;;;;5083427;28;20043;-37
2021/11/04 02:55:32;;;;;;;1.15;1.00;;;16.80;70.20;;;;;;5103597;28;20028;-39
2021/11/04 02:57:58;;;;;;;1.50;1.20;;;16.80;70.30;;;;;;5105757;28;20092;-37
2021/11/04 03:00:24;;;;;;;1.15;1.05;;;16.70;70.20;;;;;;5087152;28;20032;-38
2021/11/04 03:02:50;;;;;;;1.45;1.20;;;16.70;70.20;;;;;;5105010;28;20031;-38
2021/11/04 03:05:16;;;;;;;0.98;0.88;;;16.70;70.20;;;;;;5105191;28;20024;-37
2021/11/04 03:07:42;;;;;;;1.10;1.00;;;16.70;70.30;;;;;;5104936;28;20359;-38
2021/11/04 03:10:09;;;;;;;1.40;1.10;;;16.70;70.30;;;;;;5106362;28;20439;-38
2021/11/04 03:12:35;;;;;;;1.10;1.00;;;16.70;70.40;;;;;;5105136;28;20048;-38
2021/11/04 03:15:01;;;;;;;1.42;1.02;;;16.80;70.70;;;;;;5104824;28;20056;-38
2021/11/04 03:17:27;;;;;;;1.05;0.95;;;16.80;70.70;;;;;;5104971;28;20024;-38
2021/11/04 03:19:54;;;;;;;1.08;1.00;;;16.70;71.20;;;;;;5103709;28;20024;-38
2021/11/04 03:22:20;;;;;;;1.10;0.90;;;16.80;70.60;;;;;;5086728;28;20028;-38
2021/11/04 03:24:46;;;;;;;1.40;1.00;;;16.80;70.60;;;;;;5104630;28;20031;-37
2021/11/04 03:27:12;;;;;;;0.95;0.82;;;16.70;70.50;;;;;;5103349;28;20681;-39
2021/11/04 03:29:40;;;;;;;1.20;1.10;;;16.70;70.50;;;;;;5086505;28;20024;-38
2021/11/04 03:32:06;;;;;;;;;;;16.70;70.50;;;;;;5103952;28;20174;-38
2021/11/04 03:34:32;;;;;;;1.33;0.93;;;16.70;70.50;;;;;;5104535;28;19975;-38
2021/11/04 03:36:59;;;;;;;1.02;0.93;;;16.70;70.50;;;;;;5102999;28;20031;-38
2021/11/04 03:39:25;;;;;;;1.20;1.00;;;16.70;70.80;;;;;;5083081;28;20047;-38
2021/11/04 03:41:52;;;;;;;1.15;1.05;;;16.80;71.10;;;;;;5084244;28;20032;-38
2021/11/04 03:44:23;;;;;;;1.13;1.02;;;16.80;71.00;;;;;;5084057;28;20783;-38
2021/11/04 03:46:49;;;;;;;1.35;0.65;;;16.80;70.80;;;;;;5082943;28;20111;-38
2021/11/04 03:49:17;;;;;;;1.60;1.00;;;16.80;70.80;;;;;;5066221;28;20440;-38
2021/11/04 03:51:44;;;;;;;0.80;0.80;;;16.80;70.80;;;;;;5084897;28;20036;-38
2021/11/04 03:54:13;;;;;;;1.73;1.17;;;16.80;70.90;;;;;;5102896;28;20115;-38
2021/11/04 03:56:40;;;;;;;1.17;1.08;;;16.70;70.70;;;;;;5086087;28;20355;-38
2021/11/04 03:59:06;;;;;;;1.10;1.00;;;16.70;70.70;;;;;;5103068;28;20024;-38
2021/11/04 04:01:33;;;;;;;1.05;0.93;;;16.70;70.80;;;;;;5103937;28;20026;-38
2021/11/04 04:04:01;;;;;;;1.10;0.95;;;16.70;70.70;;;;;;5104035;28;20401;-38
2021/11/04 04:06:26;;;;;;;;;;;16.70;70.70;;;;;;5103305;28;20036;-38
2021/11/04 04:08:53;;;;;;;1.05;0.95;;;16.70;70.70;;;;;;5102612;28;19908;-38
2021/11/04 04:11:20;;;;;;;1.30;1.08;;;16.70;70.70;;;;;;5085787;28;20032;-39
2021/11/04 04:13:46;;;;;;;1.00;0.90;;;16.70;70.70;;;;;;5103742;28;20112;-38
2021/11/04 04:16:13;;;;;;;1.00;0.90;;;16.70;71.10;;;;;;5103635;28;20032;-38
2021/11/04 04:18:39;;;;;;;1.00;0.90;;;16.80;71.20;;;;;;5103880;28;20043;-38
2021/11/04 04:21:05;;;;;;;1.00;0.90;;;16.80;71.10;;;;;;5103792;28;20028;-38
2021/11/04 04:23:31;;;;;;;0.75;0.70;;;16.80;71.00;;;;;;5103610;28;20044;-38
2021/11/04 04:25:57;;;;;;;1.58;1.00;;;16.80;70.90;;;;;;5103450;28;20019;-38
2021/11/04 04:28:23;;;;;;;1.05;0.95;;;16.80;70.90;;;;;;5103554;28;20036;-38
2021/11/04 04:30:49;;;;;;;1.08;0.95;;;16.80;70.90;;;;;;5103547;28;20024;-38
2021/11/04 04:33:16;;;;;;;0.82;0.70;;;16.70;70.80;;;;;;5103641;28;20028;-38
2021/11/04 04:35:42;;;;;;;1.38;1.10;;;16.80;70.90;;;;;;5092158;28;20035;-38
2021/11/04 04:38:08;;;;;;;0.82;0.82;;;16.70;70.80;;;;;;5100732;28;20020;-38
2021/11/04 04:40:34;;;;;;;0.73;0.70;;;16.70;70.80;;;;;;5103397;28;20032;-38
2021/11/04 04:43:00;;;;;;;1.10;0.90;;;16.70;70.80;;;;;;5103396;28;20023;-38
2021/11/04 04:45:26;;;;;;;1.08;0.90;;;16.70;70.80;;;;;;5103183;28;20477;-38
2021/11/04 04:47:52;;;;;;;1.23;0.98;;;16.70;70.80;;;;;;5103453;28;20408;-38
2021/11/04 04:50:19;;;;;;;1.17;0.90;;;16.70;70.70;;;;;;5103319;28;20079;-38
2021/11/04 04:52:45;;;;;;;1.48;0.98;;;16.70;70.70;;;;;;5102978;28;20020;-38
2021/11/04 04:55:11;;;;;;;1.05;0.82;;;16.70;70.60;;;;;;5102859;28;20058;-38
2021/11/04 04:57:37;;;;;;;1.10;1.00;;;16.70;70.70;;;;;;5102674;28;20128;-38
2021/11/04 05:00:11;;;;;;;1.20;1.00;;;16.70;70.70;;;;;;5103036;28;20058;-38
2021/11/04 05:02:38;;;;;;;0.85;0.82;;;16.70;71.00;;;;;;5102777;28;20035;-38
2021/11/04 05:05:05;;;;;;;1.00;0.90;;;16.70;71.20;;;;;;5102778;28;20023;-38
2021/11/04 05:07:31;;;;;;;1.10;0.73;;;16.80;71.30;;;;;;5102518;28;20039;-38
2021/11/04 05:09:57;;;;;;;0.90;0.80;;;16.80;71.00;;;;;;5102849;28;20021;-38
2021/11/04 05:12:23;;;;;;;0.80;0.70;;;16.80;71.00;;;;;;5102809;28;20052;-38
2021/11/04 05:14:49;;;;;;;1.42;0.85;;;16.70;71.00;;;;;;5102515;28;20052;-38
2021/11/04 05:17:16;;;;;;;0.82;0.63;;;16.70;70.90;;;;;;5102694;28;20050;-38
2021/11/04 05:19:42;;;;;;;0.90;0.77;;;16.70;70.90;;;;;;5102702;28;20020;-38
2021/11/04 05:22:08;;;;;;;1.20;1.08;;;16.70;70.90;;;;;;5102600;28;20036;-38
2021/11/04 05:24:34;;;;;;;1.00;0.73;;;16.70;70.90;;;;;;5102655;28;20020;-38
2021/11/04 05:27:02;;;;;;;0.90;0.80;;;16.70;70.90;;;;;;5102313;28;20028;-38
2021/11/04 05:29:29;;;;;;;2.15;0.90;;;16.70;70.90;;;;;;5102811;28;20117;-38
2021/11/04 05:31:55;;;;;;;0.80;0.80;;;16.60;70.80;;;;;;5102574;28;20035;-38
2021/11/04 05:34:22;;;;;;;0.80;0.80;;;16.70;71.00;;;;;;5102741;28;20020;-38
2021/11/04 05:36:48;;;;;;;0.90;0.80;;;16.70;71.30;;;;;;5101911;28;20040;-38
2021/11/04 05:39:14;;;;;;;1.48;0.90;;;16.80;71.30;;;;;;5102567;28;20028;-38
2021/11/04 05:41:40;;;;;;;0.88;0.80;;;16.80;71.00;;;;;;5102475;28;20020;-38
2021/11/04 05:44:06;;;;;;;1.05;0.80;;;16.80;70.90;;;;;;5102324;28;20117;-38
2021/11/04 05:46:32;;;;;;;0.88;0.80;;;16.80;70.90;;;;;;5102155;28;20028;-38
2021/11/04 05:48:58;;;;;;;0.90;0.70;;;16.80;70.90;;;;;;5102432;28;20054;-38
2021/11/04 05:51:24;;;;;;;1.30;0.93;;;16.70;70.80;;;;;;5102114;28;20021;-38
2021/11/04 05:53:50;;;;;;;1.50;0.95;;;16.70;70.80;;;;;;5102415;28;20020;-38
2021/11/04 05:56:17;;;;;;;1.15;1.00;;;16.70;70.90;;;;;;5102111;28;20051;-38
2021/11/04 05:58:43;;;;;;;1.38;0.90;;;16.70;70.90;;;;;;5102266;28;20067;-38
2021/11/04 06:01:09;;;;;;;1.10;1.00;;;16.70;70.90;;;;;;5101382;28;20118;-38
2021/11/04 06:03:35;;;;;;;0.75;0.75;;;16.70;70.90;;;;;;5102124;28;20036;-38
2021/11/04 06:06:01;;;;;;;0.90;0.70;;;16.70;70.80;;;;;;5101761;28;20039;-38
2021/11/04 06:08:27;;;;;;;0.80;0.70;;;16.70;70.90;;;;;;5102070;28;20078;-38
2021/11/04 06:10:53;;;;;;;1.00;0.90;;;16.70;71.40;;;;;;5094166;28;20025;-38
2021/11/04 06:13:20;;;;;;;0.68;0.68;;;16.70;71.20;;;;;;5081863;28;20045;-38
2021/11/04 06:15:46;;;;;;;1.10;0.77;;;16.80;71.10;;;;;;5081909;28;20032;-38
2021/11/04 06:18:12;;;;;;;0.90;0.70;;;16.80;70.80;;;;;;5080290;28;20108;-38
2021/11/04 06:20:38;;;;;;;1.20;0.88;;;16.80;70.90;;;;;;5082144;28;20032;-38
2021/11/04 06:23:04;;;;;;;2.25;0.90;;;16.70;70.90;;;;;;5081614;28;20042;-38
2021/11/04 06:25:30;;;;;;;1.10;0.80;;;16.70;70.90;;;;;;5081807;28;20024;-38
2021/11/04 06:27:56;;;;;;;1.05;0.77;;;16.70;70.90;;;;;;5095636;28;20735;-39
2021/11/04 06:30:22;;;;;;;0.98;0.90;;;16.70;70.90;;;;;;5103823;28;20031;-38
2021/11/04 06:32:49;;;;;;;0.80;0.60;;;16.70;70.90;;;;;;5105910;28;20146;-38
2021/11/04 06:35:16;;;;;;;0.95;0.80;;;16.70;70.90;;;;;;5105917;28;20758;-38
2021/11/04 06:37:42;;;;;;;0.80;0.70;;;16.60;70.80;;;;;;5105297;28;20048;-38
2021/11/04 06:40:09;;;;;;;0.93;0.70;;;16.60;70.80;;;;;;5105830;28;20039;-38
2021/11/04 06:42:36;;;;;;;1.10;0.75;;;16.70;71.30;;;;;;5105677;28;20036;-38
2021/11/04 06:45:04;;;;;;;1.35;0.80;;;16.80;71.80;;;;;;5105748;28;20035;-38
2021/11/04 06:47:47;;;;;;;0.90;0.70;;;16.80;71.00;;;;;;5105424;28;20016;-38
2021/11/04 06:50:13;;;;;;;0.90;0.73;;;16.70;70.80;;;;;;5105602;28;20056;-38
2021/11/04 06:52:46;;;;;;;1.05;0.75;;;16.80;70.90;;;;;;5087343;28;20870;-38
2021/11/04 06:55:12;;;;;;;0.90;0.80;;;16.70;70.80;;;;;;5104192;28;20024;-38
2021/11/04 06:57:40;;;;;;;1.05;0.73;;;16.70;70.90;;;;;;5086959;28;20039;-38
2021/11/04 07:00:08;;;;;;;1.67;0.70;;;16.70;71.00;;;;;;5105327;28;20038;-38
2021/11/04 07:02:35;;;;;;;;;;;16.70;70.90;;;;;;5105814;28;20040;-38
2021/11/04 07:05:02;;;;;;;0.98;0.82;;;16.70;70.90;;;;;;5105429;28;19908;-38
2021/11/04 07:07:31;;;;;;;1.15;0.75;;;16.60;70.80;;;;;;5104494;28;20036;-38
2021/11/04 07:09:57;;;;;;;0.90;0.70;;;16.70;71.20;;;;;;5103841;28;20460;-38
2021/11/04 07:12:23;;;;;;;0.82;0.60;;;16.80;71.40;;;;;;5103712;28;20042;-38
2021/11/04 07:14:50;;;;;;;0.82;0.60;;;16.80;71.20;;;;;;5104977;28;20047;-38
2021/11/04 07:17:16;;;;;;;0.55;0.55;;;16.80;70.90;;;;;;5105140;28;20100;-38
2021/11/04 07:19:43;;;;;;;0.80;0.70;;;16.80;70.90;;;;;;5104971;28;20045;-38
2021/11/04 07:22:22;;;;;;;1.20;0.80;;;16.70;70.90;;;;;;5104889;28;20039;-38
2021/11/04 07:24:55;;;;;;;1.05;0.73;;;16.70;70.80;;;;;;5104872;28;20053;-38
2021/11/04 07:27:24;;;;;;;0.63;0.50;;;16.70;70.90;;;;;;5094438;28;20029;-38
2021/11/04 07:29:50;;;;;;;0.80;0.77;;;16.70;71.00;;;;;;5084373;28;20029;-38
2021/11/04 07:32:17;;;;;;;1.35;0.75;;;16.70;71.00;;;;;;5084527;28;20048;-38
2021/11/04 07:34:44;;;;;;;1.20;0.87;;;16.70;70.90;;;;;;5084490;28;20044;-38
2021/11/04 07:37:12;;;;;;;1.58;0.75;;;16.70;70.90;;;;;;5094008;28;20028;-38
2021/11/04 07:39:38;;;;;;;;;;;16.70;70.90;;;;;;5104887;28;20024;-38
2021/11/04 07:42:06;;;;;;;0.57;0.55;;;16.60;70.80;;;;;;5104371;28;19916;-38
2021/11/04 07:44:33;;;;;;;0.70;0.60;;;16.70;71.20;;;;;;5104669;28;20028;-38
2021/11/04 07:46:59;;;;;;;1.20;0.70;;;16.80;71.50;;;;;;5104368;28;20024;-38
2021/11/04 07:49:25;;;;;;;1.50;0.68;;;16.80;71.20;;;;;;5102977;28;20785;-38
2021/11/04 07:51:56;;;;;;;0.88;0.60;;;16.80;71.00;;;;;;5104505;28;20024;-38
2021/11/04 07:54:22;;;;;;;0.82;0.80;;;16.80;71.00;;;;;;5104541;28;20399;-38
2021/11/04 07:56:48;;;;;;;1.45;0.60;;;16.70;70.90;;;;;;5098338;28;20088;-38
2021/11/04 07:59:14;;;;;;;0.82;0.60;;;16.70;71.00;;;;;;5083965;28;20029;-39
2021/11/04 08:01:40;;;;;;;0.75;0.68;;;16.70;71.00;;;;;;5084138;28;20693;-38
2021/11/04 08:04:06;;;;;;;0.93;0.70;;;16.70;70.90;;;;;;5086811;28;20044;-38
2021/11/04 08:06:33;;;;;;;0.70;0.70;;;16.70;70.90;;;;;;5088078;28;20020;-38
2021/11/04 08:09:00;;;;;;;1.00;0.90;;;16.70;71.00;;;;;;5103868;28;20477;-38
2021/11/04 08:11:29;;;;;;;0.50;0.50;;;16.70;71.10;;;;;;5102758;28;20026;-38
2021/11/04 08:13:55;;;;;;;0.93;0.60;;;16.70;71.40;;;;;;5104038;28;20062;-38
2021/11/04 08:16:21;;;;;;;0.73;0.63;;;16.80;71.30;;;;;;5104049;28;20035;-38
2021/11/04 08:18:48;;;;;;;0.68;0.60;;;16.80;71.10;;;;;;5103896;28;20034;-38
2021/11/04 08:21:14;;;;;;;0.65;0.60;;;16.80;71.00;;;;;;5103871;28;20107;-38
2021/11/04 08:23:40;;;;;;;1.17;0.60;;;16.80;71.00;;;;;;5103846;28;20035;-38
2021/11/04 08:26:07;;;;;;;0.95;0.80;;;16.80;71.00;;;;;;5103829;28;20024;-38
2021/11/04 08:28:33;;;;;;;0.93;0.80;;;16.70;71.00;;;;;;5103468;28;20032;-38
2021/11/04 08:30:59;;;;;;;0.65;0.60;;;16.80;71.10;;;;;;5103707;28;20039;-38
2021/11/04 08:33:26;;;;;;;3.40;0.70;;;16.70;71.00;;;;;;5103707;28;20035;-38
2021/11/04 08:35:52;;;;;;;0.77;0.50;;;16.70;71.00;;;;;;5103300;28;20028;-38
2021/11/04 08:38:18;;;;;;;1.77;0.80;;;16.70;71.10;;;;;;5103173;28;20031;-38
2021/11/04 08:40:44;;;;;;;1.17;0.73;;;16.80;71.50;;;;;;5103363;28;20436;-38
2021/11/04 08:43:10;;;;;;;1.00;0.70;;;16.90;71.20;;;;;;5103485;28;20036;-38
2021/11/04 08:45:36;;;;;;;0.85;0.60;;;16.80;71.00;;;;;;5103606;28;20056;-38
2021/11/04 08:48:03;;;;;;;0.60;0.60;;;16.80;71.00;;;;;;5103487;28;20030;-38
2021/11/04 08:50:29;;;;;;;0.90;0.60;;;16.80;71.00;;;;;;5102872;28;20024;-38
2021/11/04 08:52:55;;;;;;;0.98;0.60;;;16.80;71.80;;;;;;5102928;28;20028;-38
2021/11/04 08:55:22;;;;;;;0.52;0.50;;;16.70;71.00;;;;;;5103262;28;20024;-38
2021/11/04 08:57:51;;;;;;;0.80;0.70;;;16.80;71.00;;;;;;5103299;28;20031;-38
2021/11/04 09:00:18;;;;;;;0.88;0.63;;;16.70;70.90;;;;;;5103019;28;20024;-38
2021/11/04 09:02:44;;;;;;;1.42;0.73;;;16.70;71.00;;;;;;5103081;28;20030;-39
2021/11/04 09:05:11;;;;;;;0.47;0.47;;;16.70;71.00;;;;;;5103234;28;20028;-38
2021/11/04 09:07:40;;;;;;;0.80;0.80;;;16.70;70.90;;;;;;5102874;28;20416;-38
2021/11/04 09:10:08;;;;;;;2.10;1.10;;;16.70;70.90;;;;;;5102946;28;20032;-38
2021/11/04 09:12:36;;;;;;;0.77;0.73;;;16.70;71.00;;;;;;5103142;28;20067;-38
2021/11/04 09:15:03;;;;;;;1.00;0.80;;;16.70;71.20;;;;;;5083801;28;20059;-38
2021/11/04 09:17:29;;;;;;;1.13;0.65;;;16.80;71.40;;;;;;5082694;28;20035;-38
2021/11/04 09:19:55;;;;;;;0.90;0.80;;;16.80;71.20;;;;;;5082457;28;20025;-38
2021/11/04 09:22:22;;;;;;;0.60;0.60;;;16.80;71.10;;;;;;5064431;28;20120;-39
2021/11/04 09:24:48;;;;;;;0.93;0.60;;;16.80;71.00;;;;;;5082404;28;20116;-38
2021/11/04 09:27:15;;;;;;;0.70;0.65;;;16.80;71.10;;;;;;5082324;28;20036;-38
2021/11/04 09:29:41;;;;;;;0.85;0.63;;;16.70;71.10;;;;;;5064549;28;20654;-38
2021/11/04 09:32:08;;;;;;;0.90;0.60;;;16.70;71.10;;;;;;5064545;28;20033;-38
2021/11/04 09:34:34;;;;;;;;;;;16.70;71.10;;;;;;5082913;28;20063;-38
2021/11/04 09:37:02;;;;;;;1.08;0.70;;;16.70;71.00;;;;;;5082343;28;19908;-38
2021/11/04 09:39:29;;;;;;;1.58;0.73;;;16.70;71.10;;;;;;5082298;28;20567;-38
2021/11/04 09:41:55;;;;;;;1.02;0.80;;;16.70;71.10;;;;;;5082056;28;20043;-38
2021/11/04 09:44:21;;;;;;;0.77;0.65;;;16.70;71.00;;;;;;5047871;28;20074;-38
2021/11/04 09:46:47;;;;;;;0.80;0.70;;;16.70;71.40;;;;;;5082295;28;20028;-38
2021/11/04 09:49:14;;;;;;;1.23;0.70;;;16.80;71.40;;;;;;5064167;28;20063;-38
2021/11/04 09:51:40;;;;;;;0.80;0.60;;;16.80;71.30;;;;;;5082087;28;20028;-38
2021/11/04 09:54:06;;;;;;;0.88;0.68;;;16.80;71.20;;;;;;5081908;28;20029;-38
2021/11/04 09:56:34;;;;;;;1.17;0.70;;;16.80;71.30;;;;;;5080040;28;20017;-38
2021/11/04 09:59:01;;;;;;;0.82;0.70;;;16.80;71.30;;;;;;5062154;28;20552;-38
2021/11/04 10:01:28;;;;;;;0.70;0.60;;;16.70;71.20;;;;;;5062155;28;20466;-38
2021/11/04 10:03:58;;;;;;;0.80;0.75;;;16.70;71.20;;;;;;5062146;28;20051;-38
2021/11/04 10:06:29;;;;;;;0.70;0.60;;;16.70;71.30;;;;;;5068978;28;20051;-40
2021/11/04 10:09:16;;;;;;;0.90;0.70;;;16.70;71.20;;;;;;5086336;28;20065;-38
2021/11/04 10:11:46;;;;;;;1.58;0.80;;;16.70;71.30;;;;;;5085344;28;20036;-38
2021/11/04 10:14:14;;;;;;;0.70;0.50;;;16.70;71.30;;;;;;5098010;28;20048;-38
2021/11/04 10:16:41;;;;;;;0.65;0.60;;;16.70;71.60;;;;;;5106568;28;20062;-38
2021/11/04 10:19:08;;;;;;;0.98;0.82;;;16.80;71.70;;;;;;5088444;28;20124;-38
2021/11/04 10:21:34;;;;;;;;;;;16.80;71.50;;;;;;5106504;28;20035;-38
2021/11/04 10:24:01;;;;;;;0.90;0.80;;;16.80;71.30;;;;;;5106033;28;19922;-38
2021/11/04 10:26:29;;;;;;;0.93;0.80;;;16.80;71.30;;;;;;5104774;28;20027;-38
2021/11/04 10:29:09;;;;;;;0.80;0.60;;;16.70;71.30;;;;;;5085673;28;20059;-38
2021/11/04 10:31:45;;;;;;;0.85;0.80;;;16.70;71.30;;;;;;5067683;28;20063;-38
2021/11/04 10:34:33;;;;;;;1.08;0.80;;;16.70;71.30;;;;;;5085806;28;20397;-38
2021/11/04 10:37:19;;;;;;;0.95;0.80;;;16.70;71.20;;;;;;5085606;28;20032;-38
2021/11/04 10:39:45;;;;;;;1.10;0.80;;;16.70;71.20;;;;;;5085892;28;20024;-38
2021/11/04 10:42:11;;;;;;;1.33;0.80;;;16.70;71.20;;;;;;5067313;28;20135;-38
2021/11/04 10:44:37;;;;;;;0.80;0.80;;;16.70;71.70;;;;;;5085203;28;20021;-38
2021/11/04 10:47:04;;;;;;;1.27;0.85;;;16.80;71.70;;;;;;5067513;28;20136;-38
2021/11/04 10:49:47;;;;;;;0.60;0.60;;;16.80;71.60;;;;;;5085392;28;20029;-38
2021/11/04 10:52:14;;;;;;;0.73;0.63;;;16.90;71.50;;;;;;5085165;28;20037;-38
2021/11/04 10:54:51;;;;;;;0.50;0.50;;;16.80;71.30;;;;;;5085575;28;20059;-38
2021/11/04 10:57:38;;;;;;;0.70;0.70;;;16.80;71.40;;;;;;5085361;28;20044;-38
2021/11/04 11:00:16;;;;;;;1.10;0.60;;;16.80;71.50;;;;;;5084700;28;20054;-38
2021/11/04 11:03:02;;;;;;;1.20;0.75;;;16.80;71.50;;;;;;5085287;28;20033;-38
2021/11/04 11:05:29;;;;;;;1.23;0.70;;;16.70;71.40;;;;;;5068621;28;20050;-38
2021/11/04 11:07:55;;;;;;;;;;;16.70;71.40;;;;;;5098905;28;20433;-38
2021/11/04 11:10:21;;;;;;;0.80;0.80;;;16.70;71.30;;;;;;5085369;28;19975;-38
2021/11/04 11:12:48;;;;;;;0.95;0.60;;;16.70;71.60;;;;;;5084924;28;20425;-41
2021/11/04 11:15:15;;;;;;;1.15;0.70;;;16.80;71.70;;;;;;5104951;28;20032;-38
2021/11/04 11:17:42;;;;;;;1.27;0.70;;;16.80;71.70;;;;;;5105495;28;20034;-38
2021/11/04 11:20:09;;;;;;;0.80;0.80;;;16.90;71.50;;;;;;5105325;28;20028;-38
2021/11/04 11:22:39;;;;;;;;;;;16.80;71.50;;;;;;5105671;28;20396;-38
2021/11/04 11:25:05;;;;;;;0.70;0.70;;;16.80;71.50;;;;;;5105387;28;19915;-38
2021/11/04 11:27:32;;;;;;;0.80;0.70;;;16.70;71.40;;;;;;5105100;28;20034;-38
2021/11/04 11:29:58;;;;;;;0.77;0.70;;;16.70;71.50;;;;;;5103740;28;20024;-38
2021/11/04 11:32:25;;;;;;;0.95;0.85;;;16.70;71.50;;;;;;5104734;28;20028;-38
2021/11/04 11:35:10;;;;;;;1.02;0.82;;;16.70;71.40;;;;;;5105029;28;20043;-37
2021/11/04 11:37:37;;;;;;;1.15;0.90;;;16.70;71.50;;;;;;5101801;28;20032;-38
2021/11/04 11:40:11;;;;;;;0.70;0.70;;;16.70;71.50;;;;;;5105051;28;20016;-38
2021/11/04 11:42:53;;;;;;;0.73;0.73;;;16.70;71.40;;;;;;5104603;28;20028;-38
2021/11/04 11:45:20;;;;;;;0.95;0.85;;;16.70;71.70;;;;;;5086424;28;20088;-37
2021/11/04 11:47:47;;;;;;;0.93;0.82;;;16.80;71.80;;;;;;5084478;28;20028;-38
2021/11/04 11:50:41;;;;;;;0.90;0.80;;;16.80;71.70;;;;;;5084453;28;20032;-38
2021/11/04 11:53:25;;;;;;;0.90;0.80;;;16.80;71.50;;;;;;5100722;28;20050;-38
2021/11/04 11:55:58;;;;;;;1.15;0.82;;;16.80;71.50;;;;;;5104703;28;20487;-38
2021/11/04 11:58:31;;;;;;;0.63;0.63;;;16.70;71.50;;;;;;5103335;28;20040;-38
2021/11/04 12:01:00;;;;;;;1.00;0.75;;;16.80;71.50;;;;;;5104363;28;20020;-38
2021/11/04 12:03:36;;;;;;;0.77;0.77;;;16.70;71.50;;;;;;5104207;28;20460;-38
2021/11/04 12:06:03;;;;;;;1.17;0.90;;;16.70;71.50;;;;;;5104324;28;20052;-38
2021/11/04 12:08:29;;;;;;;0.85;0.70;;;16.70;71.50;;;;;;5090918;28;20028;-38
2021/11/04 12:10:56;;;;;;;1.30;1.10;;;16.70;72.20;;;;;;5104379;28;20039;-39
2021/11/04 12:13:41;;;;;;;0.88;0.75;;;16.70;71.50;;;;;;5103910;28;20051;-38
2021/11/04 12:16:18;;;;;;;0.90;0.80;;;16.70;71.80;;;;;;5104113;28;20132;-38
2021/11/04 12:18:54;;;;;;;1.13;0.80;;;16.80;71.90;;;;;;5104186;28;20024;-38
2021/11/04 12:21:25;;;;;;;0.80;0.60;;;16.80;71.70;;;;;;5104348;28;20024;-38
2021/11/04 12:23:52;;;;;;;0.75;0.70;;;16.80;71.50;;;;;;5104031;28;20071;-38
2021/11/04 12:26:31;;;;;;;0.90;0.80;;;16.80;71.50;;;;;;5104100;28;20020;-38
2021/11/04 12:28:57;;;;;;;0.85;0.70;;;16.70;71.60;;;;;;5102936;28;20594;-38
2021/11/04 12:31:25;;;;;;;0.95;0.80;;;16.70;71.60;;;;;;5103902;28;20127;-38
2021/11/04 12:33:52;;;;;;;0.82;0.60;;;16.70;71.60;;;;;;5103646;28;20074;-38
2021/11/04 12:36:51;;;;;;;0.88;0.80;;;16.70;71.60;;;;;;5102151;28;20020;-38
2021/11/04 12:39:23;;;;;;;0.70;0.70;;;16.70;71.60;;;;;;5060676;28;20021;-38
2021/11/04 12:41:51;;;;;;;0.70;0.70;;;16.70;71.60;;;;;;5060368;28;20171;-40
2021/11/04 12:44:24;;;;;;;0.98;0.85;;;16.70;71.70;;;;;;5060529;28;20033;-38
2021/11/04 12:46:51;;;;;;;3.40;0.82;;;16.70;71.90;;;;;;5060933;28;20021;-38
2021/11/04 12:49:23;;;;;;;1.02;0.82;;;16.80;72.00;;;;;;5060523;28;20033;-38
2021/11/04 12:51:50;;;;;;;0.60;0.60;;;16.80;71.70;;;;;;5040336;28;20037;-38
2021/11/04 12:54:34;;;;;;;1.45;0.80;;;16.80;71.60;;;;;;5040525;28;20764;-38